Time;durP1;ratioP1;P1;durP2;ratioP2;P2;SDS_P1;SDS_P2;PMS_P1;PMS_P2;Temp;Humidity;BMP_temperature;BMP_pressure;BME280_temperature;BME280_humidity;BME280_pressure;Samples;Min_cycle;Max_cycle;Signal;HPM_P1;HPM_P2
2022/11/09 00:00:46;;;;;;;13.98;2.92;;;13.60;99.90;;;;;;4976735;28;40116;-81
2022/11/09 00:03:12;;;;;;;13.90;3.05;;;13.70;99.90;;;;;;4973884;28;39659;-79
2022/11/09 00:05:38;;;;;;;6.63;2.30;;;13.70;99.90;;;;;;4976853;28;38308;-81
2022/11/09 00:08:06;;;;;;;12.93;2.72;;;13.70;99.90;;;;;;4983885;28;39123;-80
2022/11/09 00:10:32;;;;;;;13.20;2.38;;;13.70;99.90;;;;;;4988375;28;38836;-80
2022/11/09 00:12:58;;;;;;;8.02;1.98;;;13.70;99.90;;;;;;5015610;23;36873;-81
2022/11/09 00:15:25;;;;;;;13.70;2.47;;;13.60;99.90;;;;;;4983507;28;36674;-81
2022/11/09 00:18:02;;;;;;;11.50;2.88;;;13.50;99.90;;;;;;4982029;28;40226;-80
2022/11/09 00:20:29;;;;;;;10.93;2.38;;;13.50;99.90;;;;;;4990971;28;49421;-80
2022/11/09 00:22:56;;;;;;;14.27;2.70;;;13.50;99.90;;;;;;4990119;28;36914;-83
2022/11/09 00:25:22;;;;;;;14.38;2.90;;;13.50;99.90;;;;;;4984451;28;36871;-80
2022/11/09 00:27:51;;;;;;;14.50;2.72;;;13.50;99.90;;;;;;4988906;28;39858;-82
2022/11/09 00:30:17;;;;;;;8.02;1.92;;;13.50;99.90;;;;;;4993646;28;39303;-81
2022/11/09 00:32:43;;;;;;;11.88;2.53;;;13.60;99.90;;;;;;5006030;28;37921;-82
2022/11/09 00:35:12;;;;;;;11.80;2.92;;;13.50;99.90;;;;;;4999125;28;36898;-80
2022/11/09 00:37:38;;;;;;;12.50;2.08;;;13.50;99.90;;;;;;4997957;28;38538;-81
2022/11/09 00:40:05;;;;;;;11.25;2.42;;;13.30;99.90;;;;;;4994383;28;36882;-80
2022/11/09 00:42:31;;;;;;;9.55;2.05;;;13.30;99.90;;;;;;4993368;28;47929;-81
2022/11/09 00:44:57;;;;;;;14.32;3.05;;;13.30;99.90;;;;;;4991199;28;36172;-80
2022/11/09 00:47:23;;;;;;;19.98;3.00;;;13.40;99.90;;;;;;4994574;28;38846;-80
2022/11/09 00:49:50;;;;;;;12.02;2.38;;;13.30;99.90;;;;;;4993153;28;38115;-79
2022/11/09 00:52:16;;;;;;;15.95;3.45;;;13.30;99.90;;;;;;4984232;28;38223;-80
2022/11/09 00:54:42;;;;;;;10.25;2.05;;;13.30;99.90;;;;;;4968847;28;36110;-80
2022/11/09 00:57:13;;;;;;;15.80;2.30;;;13.30;99.90;;;;;;4968145;28;39318;-81
2022/11/09 00:59:40;;;;;;;16.77;2.75;;;13.20;99.90;;;;;;4951900;28;40521;-80
2022/11/09 01:02:07;;;;;;;13.98;2.60;;;13.30;99.90;;;;;;4979263;28;37706;-83
2022/11/09 01:04:36;;;;;;;12.30;2.42;;;13.20;99.90;;;;;;4978314;28;37535;-84
2022/11/09 01:07:11;;;;;;;17.27;2.60;;;13.20;99.90;;;;;;4977984;28;20051;-80
2022/11/09 01:09:38;;;;;;;10.07;2.25;;;13.20;99.90;;;;;;4990339;28;37462;-81
2022/11/09 01:12:04;;;;;;;16.42;3.58;;;13.20;99.90;;;;;;4987862;28;37938;-79
2022/11/09 01:14:30;;;;;;;15.63;2.40;;;13.20;99.90;;;;;;4984918;28;37276;-81
2022/11/09 01:16:59;;;;;;;12.35;2.47;;;13.20;99.90;;;;;;4982594;28;38437;-81
2022/11/09 01:19:28;;;;;;;13.02;3.30;;;13.30;99.90;;;;;;4966200;28;38054;-81
2022/11/09 01:21:55;;;;;;;18.83;2.60;;;13.30;99.90;;;;;;5046834;23;37520;-83
2022/11/09 01:24:21;;;;;;;13.13;2.65;;;13.30;99.90;;;;;;4992725;28;38577;-80
2022/11/09 01:26:47;;;;;;;15.85;2.67;;;13.30;99.90;;;;;;4993091;28;39428;-83
2022/11/09 01:29:13;;;;;;;16.58;2.55;;;13.20;99.90;;;;;;4986996;28;40081;-82
2022/11/09 01:31:45;;;;;;;14.10;2.78;;;13.20;99.90;;;;;;5005574;28;38116;-83
2022/11/09 01:34:11;;;;;;;18.60;2.85;;;13.20;99.90;;;;;;4999995;28;37717;-82
2022/11/09 01:36:37;;;;;;;15.77;2.78;;;13.20;99.90;;;;;;4989454;28;39084;-81
2022/11/09 01:39:04;;;;;;;13.45;2.17;;;13.10;99.90;;;;;;4987402;28;37482;-82
2022/11/09 01:41:30;;;;;;;12.68;3.08;;;13.10;99.90;;;;;;4991635;28;36968;-80
2022/11/09 01:44:10;;;;;;;16.75;2.67;;;13.20;99.90;;;;;;4987787;28;37837;-79
2022/11/09 01:46:56;;;;;;;12.45;3.05;;;13.20;99.90;;;;;;4982022;28;48504;-80
2022/11/09 01:49:42;;;;;;;16.35;2.97;;;13.20;99.90;;;;;;4990716;28;37681;-80
2022/11/09 01:52:14;;;;;;;13.15;4.22;;;13.20;99.90;;;;;;4982173;28;38622;-78
2022/11/09 01:54:43;;;;;;;;;;;13.20;99.90;;;;;;5007987;28;36769;-81
2022/11/09 01:57:32;;;;;;;11.05;2.08;;;13.20;99.90;;;;;;5005080;28;38601;-82
2022/11/09 02:00:07;;;;;;;10.50;2.40;;;13.20;99.90;;;;;;5009997;28;38553;-81
2022/11/09 02:02:35;;;;;;;18.42;3.13;;;13.30;99.90;;;;;;5413559;23;38168;-77
2022/11/09 02:05:07;;;;;;;18.60;3.22;;;13.30;99.90;;;;;;4953432;28;35645;-77
2022/11/09 02:07:35;;;;;;;8.80;2.95;;;13.30;99.90;;;;;;4949478;28;47189;-78
2022/11/09 02:10:21;;;;;;;14.00;2.90;;;13.40;99.90;;;;;;4949871;28;37519;-76
2022/11/09 02:12:47;;;;;;;10.80;2.47;;;13.40;99.90;;;;;;4948040;28;46912;-76
2022/11/09 02:15:14;;;;;;;16.08;2.38;;;13.30;99.90;;;;;;4963411;28;36956;-76
2022/11/09 02:17:42;;;;;;;13.95;2.30;;;13.40;99.90;;;;;;4944851;28;37675;-77
2022/11/09 02:20:11;;;;;;;13.30;2.97;;;13.30;99.90;;;;;;4965723;28;38375;-76
2022/11/09 02:22:37;;;;;;;12.85;2.53;;;13.30;99.90;;;;;;4959840;28;39716;-76
2022/11/09 02:25:04;;;;;;;15.50;2.80;;;13.30;99.90;;;;;;4943587;28;37295;-76
2022/11/09 02:27:31;;;;;;;16.30;2.75;;;13.30;99.90;;;;;;4967106;28;48120;-76
2022/11/09 02:29:58;;;;;;;14.15;2.35;;;13.30;99.90;;;;;;4946311;28;38328;-76
2022/11/09 02:32:27;;;;;;;10.80;2.60;;;13.20;99.90;;;;;;4950396;28;38581;-76
2022/11/09 02:34:54;;;;;;;10.52;2.40;;;13.20;99.90;;;;;;4956677;28;36686;-76
2022/11/09 02:37:36;;;;;;;12.23;2.63;;;13.10;99.90;;;;;;4941156;28;38007;-75
2022/11/09 02:40:10;;;;;;;13.48;2.70;;;13.10;99.90;;;;;;4936072;28;38632;-78
2022/11/09 02:42:36;;;;;;;23.35;2.97;;;13.00;99.90;;;;;;4942801;28;47132;-77
2022/11/09 02:45:02;;;;;;;12.73;2.47;;;13.00;99.90;;;;;;4941072;28;37814;-77
2022/11/09 02:47:29;;;;;;;14.23;2.80;;;12.90;99.90;;;;;;4946613;28;39606;-75
2022/11/09 02:49:56;;;;;;;15.00;3.10;;;13.00;99.90;;;;;;4958715;28;38575;-75
2022/11/09 02:52:23;;;;;;;13.43;2.72;;;12.90;99.90;;;;;;4945272;28;38690;-76
2022/11/09 02:54:49;;;;;;;11.20;2.28;;;12.90;99.90;;;;;;4966138;28;37959;-76
2022/11/09 02:57:15;;;;;;;9.32;2.10;;;12.90;99.90;;;;;;4951861;28;39917;-76
2022/11/09 02:59:41;;;;;;;15.75;3.08;;;12.90;99.90;;;;;;4961582;28;39218;-76
2022/11/09 03:02:07;;;;;;;12.00;2.78;;;12.90;99.90;;;;;;4944223;28;38180;-76
2022/11/09 03:04:34;;;;;;;12.35;2.63;;;12.70;99.90;;;;;;4945761;28;37670;-75
2022/11/09 03:07:00;;;;;;;14.60;2.88;;;12.70;99.90;;;;;;4959165;28;39363;-75
2022/11/09 03:09:26;;;;;;;11.18;2.55;;;12.70;99.90;;;;;;4963164;28;39165;-78
2022/11/09 03:11:52;;;;;;;15.25;3.10;;;12.60;99.90;;;;;;4950586;28;38234;-78
2022/11/09 03:14:18;;;;;;;13.65;2.30;;;12.60;99.90;;;;;;4968066;28;36853;-76
2022/11/09 03:16:44;;;;;;;9.77;2.40;;;12.50;99.90;;;;;;4965817;28;38711;-76
2022/11/09 03:19:11;;;;;;;13.10;2.78;;;12.60;99.90;;;;;;4951977;28;39299;-77
2022/11/09 03:21:37;;;;;;;9.15;2.78;;;12.60;99.90;;;;;;4962724;28;37891;-76
2022/11/09 03:24:03;;;;;;;19.25;3.00;;;12.60;99.90;;;;;;4941711;28;35992;-76
2022/11/09 03:26:29;;;;;;;14.15;2.72;;;12.60;99.90;;;;;;4959277;28;39431;-76
2022/11/09 03:28:55;;;;;;;14.30;2.80;;;12.50;99.90;;;;;;4965508;28;38333;-76
2022/11/09 03:31:21;;;;;;;13.30;2.33;;;12.50;99.90;;;;;;4947269;28;39911;-76
2022/11/09 03:33:47;;;;;;;10.95;2.35;;;12.50;99.90;;;;;;4943135;28;37465;-76
2022/11/09 03:36:14;;;;;;;15.32;4.00;;;12.40;99.90;;;;;;4964818;28;39245;-76
2022/11/09 03:38:40;;;;;;;11.45;2.50;;;12.40;99.90;;;;;;4965304;28;39523;-75
2022/11/09 03:41:06;;;;;;;13.20;3.03;;;12.40;99.90;;;;;;4947875;28;39856;-75
2022/11/09 03:43:32;;;;;;;16.30;3.33;;;12.40;99.90;;;;;;4963152;28;37240;-77
2022/11/09 03:45:58;;;;;;;10.35;2.40;;;12.50;99.90;;;;;;4945989;28;39901;-76
2022/11/09 03:48:24;;;;;;;8.50;2.60;;;12.50;99.90;;;;;;4942276;28;38731;-75
2022/11/09 03:50:50;;;;;;;13.15;2.83;;;12.50;99.90;;;;;;4956370;28;38893;-76
2022/11/09 03:53:17;;;;;;;16.88;3.20;;;12.50;99.90;;;;;;4948469;28;37931;-75
2022/11/09 03:55:43;;;;;;;13.25;2.83;;;12.50;99.90;;;;;;4946176;28;39396;-75
2022/11/09 03:58:11;;;;;;;11.65;2.25;;;12.60;99.90;;;;;;4961302;28;39389;-76
2022/11/09 04:00:38;;;;;;;11.98;2.15;;;12.60;99.90;;;;;;4941968;28;39331;-77
2022/11/09 04:03:04;;;;;;;8.40;1.83;;;12.70;99.90;;;;;;4943308;28;37124;-77
2022/11/09 04:05:30;;;;;;;12.52;2.58;;;12.70;99.90;;;;;;4961222;28;39603;-76
2022/11/09 04:07:57;;;;;;;9.50;1.92;;;12.80;99.90;;;;;;4966377;28;38093;-76
2022/11/09 04:10:25;;;;;;;10.73;2.40;;;12.80;99.90;;;;;;4951467;28;39880;-76
2022/11/09 04:12:51;;;;;;;16.35;2.53;;;12.70;99.90;;;;;;4969343;28;38009;-75
2022/11/09 04:15:17;;;;;;;9.32;1.73;;;12.70;99.90;;;;;;4965565;28;40077;-76
2022/11/09 04:17:43;;;;;;;12.52;2.47;;;12.60;99.90;;;;;;4969892;28;39492;-76
2022/11/09 04:20:10;;;;;;;11.07;2.60;;;12.60;99.90;;;;;;4967528;28;38822;-75
2022/11/09 04:22:37;;;;;;;17.98;2.65;;;12.60;99.90;;;;;;4970583;28;38026;-76
2022/11/09 04:25:04;;;;;;;16.80;3.78;;;12.50;99.90;;;;;;4978585;28;38712;-76
2022/11/09 04:27:30;;;;;;;10.82;2.05;;;12.50;99.90;;;;;;4971949;28;48772;-76
2022/11/09 04:29:56;;;;;;;14.95;3.28;;;12.60;99.90;;;;;;4951418;28;37038;-76
2022/11/09 04:32:22;;;;;;;12.57;2.17;;;12.60;99.90;;;;;;4948205;28;37453;-76
2022/11/09 04:34:49;;;;;;;13.43;2.35;;;12.60;99.90;;;;;;4950857;28;40430;-76
2022/11/09 04:37:15;;;;;;;10.85;2.10;;;12.60;99.90;;;;;;4961955;28;38095;-76
2022/11/09 04:39:41;;;;;;;12.85;1.95;;;12.60;99.90;;;;;;4960662;28;38537;-76
2022/11/09 04:42:07;;;;;;;15.27;2.30;;;12.60;99.90;;;;;;4943767;28;38042;-76
2022/11/09 04:44:33;;;;;;;14.07;2.15;;;12.70;99.90;;;;;;4945633;28;40291;-75
2022/11/09 04:46:59;;;;;;;15.20;2.88;;;12.70;99.90;;;;;;4942195;28;38893;-76
2022/11/09 04:49:25;;;;;;;11.23;1.95;;;12.80;99.90;;;;;;4962518;28;39089;-76
2022/11/09 04:51:51;;;;;;;14.52;2.90;;;12.70;99.90;;;;;;4943881;28;37608;-76
2022/11/09 04:54:17;;;;;;;11.55;1.95;;;12.60;99.90;;;;;;4945075;28;40703;-77
2022/11/09 04:56:43;;;;;;;14.85;2.60;;;12.50;99.90;;;;;;4962347;28;38197;-76
2022/11/09 04:59:10;;;;;;;12.02;2.13;;;12.50;99.90;;;;;;4933683;28;38447;-76
2022/11/09 05:01:36;;;;;;;11.68;2.10;;;12.40;99.90;;;;;;4960410;28;36248;-76
2022/11/09 05:04:02;;;;;;;11.32;2.40;;;12.40;99.90;;;;;;4958916;28;40437;-78
2022/11/09 05:06:31;;;;;;;14.57;3.78;;;12.30;99.90;;;;;;4958494;28;48665;-76
2022/11/09 05:09:04;;;;;;;12.48;1.85;;;12.30;99.90;;;;;;4940469;28;39800;-77
2022/11/09 05:11:31;;;;;;;16.50;2.70;;;12.40;99.90;;;;;;4941330;28;47363;-76
2022/11/09 05:13:57;;;;;;;11.55;2.00;;;12.40;99.90;;;;;;4943451;28;36902;-76
2022/11/09 05:16:24;;;;;;;16.67;2.55;;;12.30;99.90;;;;;;4946733;28;38839;-75
2022/11/09 05:18:50;;;;;;;22.77;3.22;;;12.30;99.90;;;;;;4966761;28;39244;-76
2022/11/09 05:21:17;;;;;;;15.20;2.50;;;12.20;99.90;;;;;;4946287;28;35981;-77
2022/11/09 05:23:58;;;;;;;22.90;3.05;;;12.20;99.90;;;;;;4962293;28;38552;-76
2022/11/09 05:26:44;;;;;;;19.23;2.67;;;12.20;99.90;;;;;;4965315;28;37738;-76
2022/11/09 05:29:12;;;;;;;10.88;2.00;;;12.10;99.90;;;;;;4961134;28;39243;-77
2022/11/09 05:31:39;;;;;;;10.05;2.35;;;12.10;99.90;;;;;;4947329;28;38561;-77
2022/11/09 05:34:06;;;;;;;19.00;2.50;;;12.10;99.90;;;;;;4948242;28;40591;-77
2022/11/09 05:36:32;;;;;;;15.52;2.53;;;12.10;99.90;;;;;;4971092;28;39267;-76
2022/11/09 05:38:59;;;;;;;18.00;2.55;;;12.10;99.90;;;;;;4967091;28;38327;-77
2022/11/09 05:41:26;;;;;;;11.57;2.03;;;12.10;99.90;;;;;;4964630;28;37311;-76
2022/11/09 05:43:52;;;;;;;17.15;2.80;;;12.10;99.90;;;;;;4944967;28;39581;-76
2022/11/09 05:46:18;;;;;;;9.73;2.33;;;12.10;99.90;;;;;;4945838;28;38597;-75
2022/11/09 05:48:45;;;;;;;18.42;2.55;;;12.10;99.90;;;;;;4945728;28;39385;-77
2022/11/09 05:51:12;;;;;;;15.07;3.72;;;12.10;99.90;;;;;;4947344;28;37886;-76
2022/11/09 05:53:42;;;;;;;16.77;3.15;;;12.10;99.90;;;;;;4966468;28;39864;-77
2022/11/09 05:56:10;;;;;;;15.23;2.92;;;12.10;99.90;;;;;;4971067;28;39455;-76
2022/11/09 05:58:37;;;;;;;18.75;2.67;;;12.10;99.90;;;;;;4968926;28;38113;-77
2022/11/09 06:01:10;;;;;;;11.55;2.17;;;12.10;99.90;;;;;;4956892;28;38535;-76
2022/11/09 06:03:36;;;;;;;17.23;2.78;;;12.10;99.90;;;;;;4950931;28;46764;-77
2022/11/09 06:06:05;;;;;;;11.38;2.33;;;12.20;99.90;;;;;;4949963;28;37988;-76
2022/11/09 06:08:32;;;;;;;14.32;3.03;;;12.20;99.90;;;;;;4965658;28;48724;-76
2022/11/09 06:11:00;;;;;;;15.10;2.80;;;12.20;99.90;;;;;;4948087;28;37667;-77
2022/11/09 06:13:27;;;;;;;13.48;3.42;;;12.10;99.90;;;;;;4950826;28;40224;-74
2022/11/09 06:15:59;;;;;;;11.75;2.15;;;12.20;99.90;;;;;;4963838;28;37694;-76
2022/11/09 06:18:27;;;;;;;14.57;2.63;;;12.30;99.90;;;;;;4967886;28;37891;-76
2022/11/09 06:20:56;;;;;;;14.48;2.72;;;12.30;99.90;;;;;;4968428;28;37276;-77
2022/11/09 06:23:25;;;;;;;14.77;2.13;;;12.30;99.90;;;;;;4965679;28;38907;-77
2022/11/09 06:26:00;;;;;;;16.58;2.88;;;12.30;99.90;;;;;;4950066;28;39947;-77
2022/11/09 06:28:26;;;;;;;16.50;2.55;;;12.30;99.90;;;;;;4961275;28;38212;-76
2022/11/09 06:30:56;;;;;;;14.77;3.33;;;12.30;99.90;;;;;;4944782;28;36381;-77
2022/11/09 06:33:22;;;;;;;16.17;3.22;;;12.30;99.90;;;;;;4944095;28;39249;-77
2022/11/09 06:35:48;;;;;;;22.05;3.35;;;12.20;99.90;;;;;;4976240;28;38399;-77
2022/11/09 06:38:14;;;;;;;15.15;2.78;;;12.20;99.90;;;;;;4953064;28;39834;-76
2022/11/09 06:40:40;;;;;;;20.38;3.25;;;12.20;99.90;;;;;;4965690;28;38043;-76
2022/11/09 06:43:06;;;;;;;18.42;3.15;;;12.10;99.90;;;;;;4942238;28;40704;-76
2022/11/09 06:45:32;;;;;;;13.23;2.40;;;12.10;99.90;;;;;;4963237;28;39466;-77
2022/11/09 06:48:00;;;;;;;17.35;3.03;;;12.00;99.90;;;;;;4962260;28;38281;-77
2022/11/09 06:50:31;;;;;;;18.23;3.25;;;11.90;99.90;;;;;;4955851;28;38614;-77
2022/11/09 06:52:59;;;;;;;15.38;3.05;;;11.90;99.90;;;;;;4976979;28;38987;-77
2022/11/09 06:55:27;;;;;;;18.33;3.60;;;11.90;99.90;;;;;;4955349;28;40045;-77
2022/11/09 06:57:53;;;;;;;15.43;3.65;;;11.90;99.90;;;;;;4978149;28;38004;-76
2022/11/09 07:00:20;;;;;;;13.38;3.30;;;11.90;99.90;;;;;;4966299;28;38052;-77
2022/11/09 07:02:46;;;;;;;22.27;3.92;;;11.90;99.90;;;;;;4947534;28;39127;-77
2022/11/09 07:05:12;;;;;;;17.05;3.53;;;12.00;99.90;;;;;;4963126;28;39687;-77
2022/11/09 07:07:38;;;;;;;17.35;3.00;;;12.00;99.90;;;;;;4964641;28;37718;-77
2022/11/09 07:10:05;;;;;;;19.00;3.20;;;12.00;99.90;;;;;;4965301;28;37014;-77
2022/11/09 07:12:32;;;;;;;21.13;3.53;;;12.00;99.90;;;;;;4965372;28;39455;-78
2022/11/09 07:14:58;;;;;;;18.88;3.25;;;12.10;99.90;;;;;;4947976;28;38577;-76
2022/11/09 07:17:24;;;;;;;19.55;3.67;;;12.10;99.90;;;;;;4951558;28;38083;-76
2022/11/09 07:19:50;;;;;;;18.45;3.20;;;12.00;99.90;;;;;;4979152;28;37757;-76
2022/11/09 07:22:16;;;;;;;15.88;3.55;;;12.00;99.90;;;;;;4968723;28;36812;-77
2022/11/09 07:24:42;;;;;;;16.67;2.90;;;12.00;99.90;;;;;;4975794;28;38447;-76
2022/11/09 07:27:08;;;;;;;19.55;3.33;;;12.10;99.90;;;;;;4971418;28;38687;-77
2022/11/09 07:29:36;;;;;;;16.15;3.50;;;12.00;99.90;;;;;;4963256;28;37190;-77
2022/11/09 07:32:02;;;;;;;19.02;3.45;;;12.00;99.90;;;;;;4946254;28;39025;-77
2022/11/09 07:34:29;;;;;;;22.98;3.13;;;12.00;99.90;;;;;;4964291;28;39937;-77
2022/11/09 07:36:56;;;;;;;13.80;3.42;;;12.00;99.90;;;;;;4946607;28;38622;-77
2022/11/09 07:39:22;;;;;;;17.92;3.00;;;12.00;99.90;;;;;;4947577;28;38388;-78
2022/11/09 07:41:49;;;;;;;12.90;2.92;;;12.00;99.90;;;;;;4956725;28;39753;-77
2022/11/09 07:44:17;;;;;;;17.00;3.38;;;12.00;99.90;;;;;;4943051;28;39412;-77
2022/11/09 07:46:46;;;;;;;19.60;3.80;;;12.00;99.90;;;;;;4958318;28;38319;-78
2022/11/09 07:49:14;;;;;;;18.40;2.70;;;12.00;99.90;;;;;;4952667;28;38243;-77
2022/11/09 07:51:41;;;;;;;17.58;3.45;;;12.00;99.90;;;;;;4963806;28;39536;-76
2022/11/09 07:54:07;;;;;;;24.98;3.83;;;12.00;99.90;;;;;;4947061;28;38737;-76
2022/11/09 07:56:34;;;;;;;15.57;2.33;;;12.00;99.90;;;;;;4946427;28;38381;-77
2022/11/09 07:59:00;;;;;;;17.05;3.78;;;12.10;99.90;;;;;;4964839;28;37111;-77
2022/11/09 08:01:26;;;;;;;25.33;4.55;;;12.10;99.90;;;;;;4953253;28;39492;-76
2022/11/09 08:03:53;;;;;;;15.85;3.08;;;12.20;99.90;;;;;;4947256;28;38852;-76
2022/11/09 08:06:21;;;;;;;15.82;3.25;;;12.20;99.90;;;;;;4950900;28;39009;-77
2022/11/09 08:08:48;;;;;;;17.83;3.25;;;12.30;99.90;;;;;;4970176;28;36207;-77
2022/11/09 08:11:15;;;;;;;16.98;3.28;;;12.30;99.90;;;;;;4957364;28;39017;-77
2022/11/09 08:13:41;;;;;;;15.90;3.20;;;12.40;99.90;;;;;;4942647;28;36799;-77
2022/11/09 08:16:07;;;;;;;17.92;3.72;;;12.40;99.90;;;;;;4963296;28;39507;-77
2022/11/09 08:18:33;;;;;;;16.25;3.58;;;12.50;99.90;;;;;;4952564;28;37451;-77
2022/11/09 08:21:03;;;;;;;15.02;3.47;;;12.50;99.90;;;;;;4954747;28;37479;-77
2022/11/09 08:23:29;;;;;;;17.90;2.70;;;12.50;99.90;;;;;;4971833;28;39223;-77
2022/11/09 08:25:55;;;;;;;11.85;2.72;;;12.60;99.90;;;;;;4965022;28;38957;-78
2022/11/09 08:28:22;;;;;;;13.70;2.33;;;12.60;99.90;;;;;;4954119;28;38100;-76
2022/11/09 08:30:59;;;;;;;14.73;2.88;;;12.60;99.90;;;;;;4970752;28;38264;-78
2022/11/09 08:33:28;;;;;;;18.15;4.40;;;12.60;99.90;;;;;;4957941;28;39779;-77
2022/11/09 08:35:54;;;;;;;18.98;3.75;;;12.60;99.90;;;;;;4953721;28;38355;-77
2022/11/09 08:38:21;;;;;;;16.15;3.25;;;12.70;99.90;;;;;;4957841;28;37520;-79
2022/11/09 08:40:47;;;;;;;14.70;2.58;;;12.80;99.90;;;;;;4953449;28;40602;-77
2022/11/09 08:43:13;;;;;;;19.83;2.88;;;12.80;99.90;;;;;;4955950;28;39234;-75
2022/11/09 08:45:40;;;;;;;12.00;2.83;;;12.80;99.90;;;;;;4958667;28;39470;-78
2022/11/09 08:48:07;;;;;;;15.88;2.72;;;12.80;99.90;;;;;;4956794;28;38080;-76
2022/11/09 08:50:35;;;;;;;17.48;2.30;;;12.80;99.90;;;;;;4972726;28;38433;-77
2022/11/09 08:53:02;;;;;;;16.15;3.25;;;12.90;99.90;;;;;;4952404;28;38286;-77
2022/11/09 08:55:30;;;;;;;12.68;2.75;;;13.00;99.90;;;;;;4956508;28;45628;-77
2022/11/09 08:57:58;;;;;;;16.08;2.80;;;13.00;99.90;;;;;;4966450;28;38000;-77
2022/11/09 09:00:25;;;;;;;21.02;3.70;;;13.10;99.90;;;;;;4989954;28;39944;-76
2022/11/09 09:02:51;;;;;;;15.20;2.88;;;13.10;99.90;;;;;;4966459;28;36974;-77
2022/11/09 09:05:18;;;;;;;13.63;2.47;;;13.10;99.90;;;;;;4963026;28;39909;-77
2022/11/09 09:07:44;;;;;;;14.15;2.92;;;13.10;99.90;;;;;;4976318;28;37350;-77
2022/11/09 09:10:11;;;;;;;17.15;2.78;;;13.20;99.90;;;;;;4955720;28;40586;-77
2022/11/09 09:12:37;;;;;;;16.70;3.08;;;13.20;99.90;;;;;;4974468;28;38664;-77
2022/11/09 09:15:04;;;;;;;16.73;3.35;;;13.20;99.90;;;;;;4971132;28;38087;-77
2022/11/09 09:17:30;;;;;;;15.68;3.20;;;13.20;99.90;;;;;;4983575;28;49024;-77
2022/11/09 09:19:56;;;;;;;16.10;2.60;;;13.20;99.90;;;;;;4978000;28;38940;-77
2022/11/09 09:22:22;;;;;;;14.82;3.03;;;13.20;99.90;;;;;;4957778;28;40486;-76
2022/11/09 09:24:48;;;;;;;14.48;2.70;;;13.20;99.90;;;;;;4958775;28;38530;-75
2022/11/09 09:27:14;;;;;;;14.85;2.42;;;13.20;99.90;;;;;;4955784;28;35981;-75
2022/11/09 09:29:40;;;;;;;10.80;2.35;;;13.20;99.90;;;;;;4944485;28;39874;-76
2022/11/09 09:32:06;;;;;;;19.55;2.47;;;13.20;99.90;;;;;;4954577;28;37475;-76
2022/11/09 09:34:32;;;;;;;17.20;3.13;;;13.30;99.90;;;;;;4980695;28;37912;-76
2022/11/09 09:36:58;;;;;;;13.30;2.78;;;13.30;99.90;;;;;;4982418;28;37320;-77
2022/11/09 09:39:25;;;;;;;11.82;2.75;;;13.40;99.90;;;;;;4950234;28;40752;-77
2022/11/09 09:41:54;;;;;;;15.45;2.70;;;13.40;99.90;;;;;;4964689;28;38244;-75
2022/11/09 09:44:37;;;;;;;13.05;2.83;;;13.40;99.90;;;;;;4940740;28;39577;-75
2022/11/09 09:47:12;;;;;;;;;;;13.50;99.90;;;;;;4946724;28;37446;-76
2022/11/09 09:49:55;;;;;;;13.98;2.10;;;13.60;99.90;;;;;;4961519;28;39233;-77
2022/11/09 09:52:44;;;;;;;14.15;2.67;;;13.70;99.90;;;;;;4967768;28;38445;-76
2022/11/09 09:55:10;;;;;;;16.30;3.00;;;13.60;99.90;;;;;;4942537;28;36887;-78
2022/11/09 09:57:37;;;;;;;15.20;3.15;;;13.70;99.90;;;;;;4955280;28;35874;-76
2022/11/09 10:00:14;;;;;;;14.15;2.78;;;13.70;99.90;;;;;;4969082;28;38488;-76
2022/11/09 10:02:40;;;;;;;14.60;3.65;;;13.70;99.90;;;;;;4943387;28;48110;-77
2022/11/09 10:05:10;;;;;;;16.42;3.05;;;13.70;99.90;;;;;;4951649;28;38540;-79
2022/11/09 10:07:47;;;;;;;11.32;2.70;;;13.60;99.90;;;;;;4928238;28;39065;-76
2022/11/09 10:10:24;;;;;;;15.50;2.10;;;13.60;99.90;;;;;;4927020;28;38867;-76
2022/11/09 10:13:34;;;;;;;18.73;2.70;;;13.60;99.90;;;;;;4923291;28;38686;-77
2022/11/09 10:16:15;;;;;;;14.07;2.50;;;13.30;99.90;;;;;;4952823;28;47100;-75
2022/11/09 10:19:06;;;;;;;16.23;2.35;;;13.00;99.90;;;;;;4927820;28;48268;-76
2022/11/09 10:21:49;;;;;;;16.02;2.35;;;12.90;99.90;;;;;;4935375;28;47200;-77
2022/11/09 10:24:15;;;;;;;15.57;2.60;;;12.90;99.90;;;;;;4930049;28;37284;-76
2022/11/09 10:26:54;;;;;;;17.58;2.55;;;12.90;99.90;;;;;;4932766;28;37953;-76
2022/11/09 10:29:23;;;;;;;15.05;2.20;;;12.90;99.90;;;;;;4936690;28;37863;-77
2022/11/09 10:32:16;;;;;;;13.68;2.47;;;12.90;99.90;;;;;;4906297;28;40224;-76
2022/11/09 10:34:54;;;;;;;15.82;2.28;;;13.00;99.90;;;;;;4913176;29;47385;-77
2022/11/09 10:37:37;;;;;;;16.25;2.70;;;13.10;99.90;;;;;;4925903;28;39066;-76
2022/11/09 10:40:24;;;;;;;14.13;2.67;;;13.20;99.90;;;;;;4923867;28;37431;-76
2022/11/09 10:42:56;;;;;;;12.30;2.30;;;13.40;99.90;;;;;;4949465;28;48732;-77
2022/11/09 10:45:42;;;;;;;11.75;2.33;;;13.40;99.90;;;;;;4934001;28;38946;-76
2022/11/09 10:48:11;;;;;;;13.13;2.15;;;13.40;99.90;;;;;;4948449;28;38144;-76
2022/11/09 10:50:50;;;;;;;9.00;1.80;;;13.40;99.90;;;;;;4948650;28;37295;-77
2022/11/09 10:53:30;;;;;;;11.27;2.30;;;13.40;99.90;;;;;;4953003;28;38611;-76
2022/11/09 10:56:14;;;;;;;11.95;2.10;;;13.30;99.90;;;;;;4925446;28;38665;-77
2022/11/09 10:58:48;;;;;;;11.80;2.10;;;13.20;99.90;;;;;;4932726;28;47189;-77
2022/11/09 11:01:21;;;;;;;8.65;2.22;;;12.90;99.90;;;;;;4947704;28;37339;-76
2022/11/09 11:03:53;;;;;;;12.43;1.95;;;12.70;99.90;;;;;;4957591;28;39001;-77
2022/11/09 11:06:22;;;;;;;6.53;1.10;;;12.40;99.90;;;;;;4961958;28;37506;-76
2022/11/09 11:09:12;;;;;;;3.05;1.10;;;12.10;99.90;;;;;;4971530;28;38315;-78
2022/11/09 11:11:38;;;;;;;6.72;1.08;;;12.00;99.90;;;;;;4954256;28;46024;-77
2022/11/09 11:14:21;;;;;;;5.75;1.08;;;11.80;99.90;;;;;;4952298;28;41618;-77
2022/11/09 11:16:49;;;;;;;5.38;1.10;;;11.80;99.90;;;;;;4958671;28;37538;-77
2022/11/09 11:19:30;;;;;;;6.90;1.08;;;11.80;99.90;;;;;;4969780;28;38149;-77
2022/11/09 11:22:11;;;;;;;3.63;0.73;;;11.80;99.90;;;;;;4965902;28;37904;-76
2022/11/09 11:24:45;;;;;;;4.47;0.93;;;11.80;99.90;;;;;;4953669;28;46999;-77
2022/11/09 11:27:29;;;;;;;3.45;0.75;;;11.80;99.90;;;;;;4951069;28;38766;-77
2022/11/09 11:30:05;;;;;;;4.45;0.82;;;12.00;99.90;;;;;;4970778;28;38288;-77
2022/11/09 11:32:32;;;;;;;2.72;0.70;;;12.20;99.90;;;;;;4948724;28;47301;-76
2022/11/09 11:34:58;;;;;;;8.48;1.08;;;12.30;99.90;;;;;;4965692;28;39446;-77
2022/11/09 11:37:53;;;;;;;10.73;1.25;;;12.30;99.90;;;;;;4947089;28;39651;-77
2022/11/09 11:40:34;;;;;;;6.45;1.52;;;12.40;99.90;;;;;;4957900;28;38959;-77
2022/11/09 11:43:20;;;;;;;8.70;1.98;;;12.60;99.90;;;;;;4963764;28;36322;-78
2022/11/09 11:46:15;;;;;;;8.13;1.92;;;12.80;99.90;;;;;;4949338;28;47118;-78
2022/11/09 11:49:02;;;;;;;12.43;1.95;;;12.90;99.90;;;;;;4960471;28;46851;-79
2022/11/09 11:51:43;;;;;;;8.98;1.77;;;13.10;99.90;;;;;;4947728;28;47008;-78
2022/11/09 11:54:39;;;;;;;7.35;1.90;;;13.00;99.90;;;;;;4949512;28;37345;-78
2022/11/09 11:57:14;;;;;;;14.20;2.67;;;13.10;99.90;;;;;;4963609;28;38104;-77
2022/11/09 11:59:58;;;;;;;14.52;2.40;;;13.40;99.90;;;;;;4970753;28;38494;-77
2022/11/09 12:03:01;;;;;;;13.40;2.33;;;13.60;99.90;;;;;;4962857;28;39174;-79
2022/11/09 12:05:36;;;;;;;7.82;1.63;;;13.80;99.90;;;;;;4958092;28;39610;-78
2022/11/09 12:08:20;;;;;;;11.70;2.00;;;13.90;99.90;;;;;;4966676;28;38131;-77
2022/11/09 12:10:46;;;;;;;10.63;2.05;;;13.90;99.90;;;;;;4963177;28;39196;-78
2022/11/09 12:13:38;;;;;;;10.35;1.85;;;14.10;99.90;;;;;;4948148;28;38209;-76
2022/11/09 12:16:42;;;;;;;7.38;1.63;;;14.10;99.90;;;;;;4973080;28;37769;-78
2022/11/09 12:19:11;;;;;;;10.05;2.13;;;14.20;99.90;;;;;;4964613;28;38616;-79
2022/11/09 12:21:47;;;;;;;8.27;1.83;;;14.30;99.90;;;;;;4976168;28;39183;-78
2022/11/09 12:24:30;;;;;;;7.97;1.80;;;14.20;99.90;;;;;;4960491;28;38871;-78
2022/11/09 12:27:14;;;;;;;10.90;1.48;;;14.30;99.90;;;;;;4980586;28;39124;-78
2022/11/09 12:30:12;;;;;;;8.00;1.58;;;14.40;99.90;;;;;;4969616;28;47140;-80
2022/11/09 12:32:46;;;;;;;9.63;2.05;;;14.50;99.90;;;;;;4978140;28;48143;-80
2022/11/09 12:35:32;;;;;;;4.85;1.05;;;14.50;99.90;;;;;;4958801;28;38757;-80
2022/11/09 12:38:11;;;;;;;11.00;1.60;;;14.50;99.90;;;;;;4965083;28;38583;-76
2022/11/09 12:40:47;;;;;;;6.32;0.90;;;14.50;99.90;;;;;;4964086;28;47219;-80
2022/11/09 12:43:14;;;;;;;8.55;1.23;;;14.50;99.90;;;;;;4963804;28;40433;-79
2022/11/09 12:45:42;;;;;;;6.15;1.13;;;14.50;99.90;;;;;;4971054;28;38207;-79
2022/11/09 12:48:33;;;;;;;6.75;1.30;;;14.60;99.90;;;;;;4976050;28;37374;-79
2022/11/09 12:51:02;;;;;;;6.82;1.67;;;14.50;99.90;;;;;;4964288;28;39694;-77
2022/11/09 12:53:34;;;;;;;10.32;1.95;;;14.50;99.90;;;;;;4964955;28;39151;-81